Check out our new BloomSky Weather System.

Active alerts


No alerts


Thunder radar  blitzortung!


Rain radar more information rain snow radar


Visit our other weather sites:

Template documentation
and downloads

And another site



Weather Underground History page Text

Daily Summary for February 19, 2017 Units:  English    Metric   Both
« Previous Day
Next Day »
Daily Weekly Monthly Yearly Custom
  High: Low: Average:
Temperature: 80.2 °F 68.5 °F 72.2 °F
Dew Point: 71.2 °F 67.3 °F 69.5 °F
Humidity: 98 % 72 % 92 %
Wind Speed: 19.0 mph 0.0 mph 4.5 mph
Wind Gust: 19.0 mph - -
Wind:- - ESE
Pressure: 29.94 in 29.83 in -
Precipitation: 0.00 in    
Historical Graphs
 
 
Tabular Data for February 19, 2017
Time Temperature Dew Point Pressure Wind Wind Speed Wind Gust Humidity Rainfall Rate (Hourly)
00:04 68.7 °F 67.3 °F 29.86 in SSE 3.0 mph 5.0 mph 95 % 0.00 in
00:09 68.7 °F 67.3 °F 29.87 in SE 2.0 mph 6.0 mph 95 % 0.00 in
00:14 68.7 °F 67.3 °F 29.87 in East 2.0 mph 6.0 mph 95 % 0.00 in
00:19 68.9 °F 67.5 °F 29.87 in SE 2.0 mph 6.0 mph 95 % 0.00 in
00:24 68.9 °F 67.5 °F 29.87 in ESE 2.0 mph 6.0 mph 95 % 0.00 in
00:29 68.7 °F 67.3 °F 29.87 in East 1.0 mph 6.0 mph 95 % 0.00 in
00:34 68.7 °F 67.5 °F 29.87 in SE 1.0 mph 6.0 mph 96 % 0.00 in
00:39 68.7 °F 67.5 °F 29.87 in East 1.0 mph 4.0 mph 96 % 0.00 in
00:44 68.7 °F 67.5 °F 29.87 in SE 1.0 mph 4.0 mph 96 % 0.00 in
00:54 68.5 °F 67.3 °F 29.87 in Calm   3.0 mph 96 % 0.00 in
00:59 68.5 °F 67.3 °F 29.87 in Calm   3.0 mph 96 % 0.00 in
01:05 68.7 °F 67.5 °F 29.87 in SE 3.0 mph 3.0 mph 96 % 0.00 in
01:10 68.5 °F 67.3 °F 29.87 in Calm   4.0 mph 96 % 0.00 in
01:15 68.5 °F 67.3 °F 29.86 in Calm   4.0 mph 96 % 0.00 in
01:20 68.7 °F 67.8 °F 29.86 in ESE 2.0 mph 4.0 mph 97 % 0.00 in
01:25 68.7 °F 67.8 °F 29.86 in ESE 2.0 mph 3.0 mph 97 % 0.00 in
01:30 68.7 °F 67.8 °F 29.86 in ESE 2.0 mph 4.0 mph 97 % 0.00 in
01:35 68.7 °F 67.8 °F 29.86 in SE 1.0 mph 4.0 mph 97 % 0.00 in
01:40 68.9 °F 68.0 °F 29.86 in ESE 1.0 mph 3.0 mph 97 % 0.00 in
01:45 69.1 °F 68.2 °F 29.86 in ESE 3.0 mph 4.0 mph 97 % 0.00 in
01:50 69.1 °F 68.2 °F 29.86 in East 2.0 mph 4.0 mph 97 % 0.00 in
01:55 69.1 °F 68.2 °F 29.86 in SSE 1.0 mph 4.0 mph 97 % 0.00 in
02:00 69.1 °F 68.2 °F 29.86 in Calm   4.0 mph 97 % 0.00 in
02:05 69.1 °F 68.2 °F 29.86 in SSE 1.0 mph 4.0 mph 97 % 0.00 in
02:10 68.9 °F 68.0 °F 29.86 in Calm   4.0 mph 97 % 0.00 in
02:15 69.1 °F 68.2 °F 29.86 in Calm   4.0 mph 97 % 0.00 in
02:20 68.9 °F 68.0 °F 29.86 in Calm   4.0 mph 97 % 0.00 in
02:25 69.1 °F 68.2 °F 29.86 in Calm   4.0 mph 97 % 0.00 in
02:30 69.1 °F 68.2 °F 29.86 in Calm   3.0 mph 97 % 0.00 in
02:35 69.1 °F 68.2 °F 29.86 in SE 2.0 mph 3.0 mph 97 % 0.00 in
02:40 69.1 °F 68.2 °F 29.86 in ESE 4.0 mph 4.0 mph 97 % 0.00 in
02:45 69.1 °F 68.2 °F 29.86 in East 2.0 mph 5.0 mph 97 % 0.00 in
02:50 69.1 °F 68.2 °F 29.86 in ENE 2.0 mph 5.0 mph 97 % 0.00 in
02:55 69.1 °F 68.2 °F 29.86 in ESE 1.0 mph 5.0 mph 97 % 0.00 in
03:01 69.3 °F 68.4 °F 29.86 in SE 1.0 mph 5.0 mph 97 % 0.00 in
03:06 69.3 °F 68.4 °F 29.86 in East 1.0 mph 5.0 mph 97 % 0.00 in
03:11 69.3 °F 68.4 °F 29.86 in ESE 2.0 mph 5.0 mph 97 % 0.00 in
03:16 69.3 °F 68.4 °F 29.86 in Calm   4.0 mph 97 % 0.00 in
03:21 69.3 °F 68.4 °F 29.86 in ESE 3.0 mph 4.0 mph 97 % 0.00 in
03:26 69.3 °F 68.4 °F 29.86 in ESE 2.0 mph 4.0 mph 97 % 0.00 in
03:31 69.4 °F 68.5 °F 29.86 in Calm   4.0 mph 97 % 0.00 in
03:36 69.4 °F 68.5 °F 29.85 in East 1.0 mph 4.0 mph 97 % 0.00 in
03:41 69.3 °F 68.4 °F 29.85 in SE 1.0 mph 4.0 mph 97 % 0.00 in
03:46 69.3 °F 68.4 °F 29.85 in SE 1.0 mph 4.0 mph 97 % 0.00 in
03:51 69.1 °F 68.5 °F 29.85 in Calm   4.0 mph 98 % 0.00 in
03:56 69.1 °F 68.5 °F 29.85 in ENE 3.0 mph 5.0 mph 98 % 0.00 in
04:01 69.1 °F 68.5 °F 29.85 in ESE 2.0 mph 6.0 mph 98 % 0.00 in
04:06 69.1 °F 68.5 °F 29.85 in East 1.0 mph 6.0 mph 98 % 0.00 in
04:11 69.1 °F 68.5 °F 29.85 in SE 1.0 mph 6.0 mph 98 % 0.00 in
04:16 69.1 °F 68.5 °F 29.85 in East 3.0 mph 5.0 mph 98 % 0.00 in
04:21 69.3 °F 68.7 °F 29.85 in East 4.0 mph 7.0 mph 98 % 0.00 in
04:26 69.3 °F 68.7 °F 29.85 in ESE 1.0 mph 7.0 mph 98 % 0.00 in
04:31 69.3 °F 68.7 °F 29.85 in Calm   7.0 mph 98 % 0.00 in
04:36 69.3 °F 68.7 °F 29.85 in SSE 1.0 mph 7.0 mph 98 % 0.00 in
04:41 69.3 °F 68.7 °F 29.85 in ESE 4.0 mph 7.0 mph 98 % 0.00 in
04:46 69.3 °F 68.7 °F 29.86 in SE 1.0 mph 7.0 mph 98 % 0.00 in
04:56 69.4 °F 68.9 °F 29.86 in East 4.0 mph 7.0 mph 98 % 0.00 in
04:57 69.4 °F 68.9 °F 29.86 in East 4.0 mph 7.0 mph 98 % 0.00 in
05:02 69.4 °F 68.9 °F 29.86 in SE 2.0 mph 7.0 mph 98 % 0.00 in
05:07 69.4 °F 68.9 °F 29.86 in East 4.0 mph 8.0 mph 98 % 0.00 in
05:12 69.4 °F 68.9 °F 29.86 in SE 4.0 mph 8.0 mph 98 % 0.00 in
05:17 69.4 °F 68.9 °F 29.86 in East 4.0 mph 8.0 mph 98 % 0.00 in
05:22 69.4 °F 68.9 °F 29.86 in South 3.0 mph 6.0 mph 98 % 0.00 in
05:27 69.6 °F 69.1 °F 29.87 in ESE 3.0 mph 6.0 mph 98 % 0.00 in
05:32 69.6 °F 69.1 °F 29.87 in Calm   6.0 mph 98 % 0.00 in
05:37 69.6 °F 69.1 °F 29.88 in SE 2.0 mph 5.0 mph 98 % 0.00 in
05:42 69.6 °F 69.1 °F 29.88 in SSE 1.0 mph 5.0 mph 98 % 0.00 in
05:47 69.6 °F 69.1 °F 29.89 in ESE 3.0 mph 4.0 mph 98 % 0.00 in
05:52 69.6 °F 69.1 °F 29.89 in ESE 1.0 mph 4.0 mph 98 % 0.00 in
05:57 69.6 °F 69.1 °F 29.89 in ESE 1.0 mph 4.0 mph 98 % 0.00 in
06:02 69.6 °F 69.1 °F 29.89 in East 1.0 mph 4.0 mph 98 % 0.00 in
06:03 69.6 °F 69.1 °F 29.89 in ESE 2.0 mph 4.0 mph 98 % 0.00 in
06:08 69.6 °F 69.1 °F 29.89 in SE 3.0 mph 4.0 mph 98 % 0.00 in
06:13 69.6 °F 69.1 °F 29.89 in SE 1.0 mph 6.0 mph 98 % 0.00 in
06:18 69.6 °F 69.1 °F 29.89 in SE 4.0 mph 6.0 mph 98 % 0.00 in
06:23 69.8 °F 69.3 °F 29.89 in ESE 2.0 mph 6.0 mph 98 % 0.00 in
06:28 69.8 °F 69.3 °F 29.89 in ESE 6.0 mph 6.0 mph 98 % 0.00 in
06:33 69.8 °F 69.3 °F 29.89 in SE 1.0 mph 6.0 mph 98 % 0.00 in
06:38 69.8 °F 69.3 °F 29.90 in ESE 3.0 mph 6.0 mph 98 % 0.00 in
06:43 69.8 °F 69.3 °F 29.90 in ESE 1.0 mph 8.0 mph 98 % 0.00 in
06:48 69.8 °F 69.3 °F 29.90 in East 2.0 mph 8.0 mph 98 % 0.00 in
06:54 70.0 °F 69.4 °F 29.90 in ESE 1.0 mph 8.0 mph 98 % 0.00 in
06:59 70.0 °F 69.4 °F 29.90 in ESE 4.0 mph 6.0 mph 98 % 0.00 in
07:04 70.0 °F 69.4 °F 29.90 in ESE 1.0 mph 6.0 mph 98 % 0.00 in
07:09 70.0 °F 69.4 °F 29.91 in ESE 1.0 mph 6.0 mph 98 % 0.00 in
07:14 70.0 °F 69.4 °F 29.91 in ENE 2.0 mph 6.0 mph 98 % 0.00 in
07:19 70.0 °F 69.4 °F 29.91 in ENE 2.0 mph 6.0 mph 98 % 0.00 in
07:24 70.0 °F 69.4 °F 29.90 in SE 2.0 mph 7.0 mph 98 % 0.00 in
07:29 70.0 °F 69.4 °F 29.90 in East 5.0 mph 7.0 mph 98 % 0.00 in
07:34 70.2 °F 69.6 °F 29.90 in East 1.0 mph 7.0 mph 98 % 0.00 in
07:39 70.2 °F 69.6 °F 29.90 in ESE 2.0 mph 7.0 mph 98 % 0.00 in
07:44 70.2 °F 69.6 °F 29.91 in East 3.0 mph 7.0 mph 98 % 0.00 in
07:49 70.3 °F 69.8 °F 29.91 in East 4.0 mph 7.0 mph 98 % 0.00 in
07:54 70.3 °F 69.4 °F 29.91 in SE 5.0 mph 7.0 mph 97 % 0.00 in
07:59 70.3 °F 69.4 °F 29.91 in East 5.0 mph 8.0 mph 97 % 0.00 in
08:04 70.3 °F 69.4 °F 29.91 in ESE 2.0 mph 8.0 mph 97 % 0.00 in
08:09 70.5 °F 69.6 °F 29.91 in ESE 5.0 mph 8.0 mph 97 % 0.00 in
08:14 70.7 °F 69.8 °F 29.92 in East 4.0 mph 8.0 mph 97 % 0.00 in
08:19 70.9 °F 70.0 °F 29.92 in SE 3.0 mph 8.0 mph 97 % 0.00 in
08:24 70.9 °F 70.0 °F 29.93 in East 3.0 mph 8.0 mph 97 % 0.00 in
08:29 71.1 °F 70.2 °F 29.93 in SE 3.0 mph 7.0 mph 97 % 0.00 in
08:34 71.1 °F 70.2 °F 29.93 in ESE 2.0 mph 5.0 mph 97 % 0.00 in
08:39 71.2 °F 70.3 °F 29.93 in ESE 3.0 mph 6.0 mph 97 % 0.00 in
08:44 71.4 °F 70.2 °F 29.93 in SE 4.0 mph 6.0 mph 96 % 0.00 in
08:49 71.4 °F 70.2 °F 29.93 in East 3.0 mph 8.0 mph 96 % 0.00 in
08:54 71.8 °F 70.5 °F 29.93 in ESE 3.0 mph 9.0 mph 96 % 0.00 in
08:59 71.8 °F 70.3 °F 29.94 in ESE 5.0 mph 9.0 mph 95 % 0.00 in
09:04 71.8 °F 70.3 °F 29.94 in SE 9.0 mph 9.0 mph 95 % 0.00 in
09:10 72.0 °F 70.5 °F 29.94 in SE 5.0 mph 14.0 mph 95 % 0.00 in
09:15 72.1 °F 70.3 °F 29.94 in SSE 5.0 mph 14.0 mph 94 % 0.00 in
09:20 72.1 °F 70.3 °F 29.94 in SE 3.0 mph 14.0 mph 94 % 0.00 in
09:25 72.3 °F 70.2 °F 29.94 in ESE 9.0 mph 12.0 mph 93 % 0.00 in
09:30 72.3 °F 70.2 °F 29.94 in SE 9.0 mph 12.0 mph 93 % 0.00 in
09:35 72.3 °F 70.2 °F 29.94 in ESE 7.0 mph 12.0 mph 93 % 0.00 in
09:40 72.7 °F 70.2 °F 29.94 in ESE 8.0 mph 12.0 mph 92 % 0.00 in
09:45 72.7 °F 70.2 °F 29.94 in SSE 3.0 mph 12.0 mph 92 % 0.00 in
09:50 72.9 °F 70.7 °F 29.94 in ESE 3.0 mph 12.0 mph 93 % 0.00 in
09:55 72.9 °F 70.3 °F 29.94 in SE 2.0 mph 12.0 mph 92 % 0.00 in
10:00 72.9 °F 70.3 °F 29.94 in SE 5.0 mph 10.0 mph 92 % 0.00 in
10:05 72.9 °F 70.3 °F 29.94 in SSE 2.0 mph 10.0 mph 92 % 0.00 in
10:10 72.9 °F 70.3 °F 29.94 in SE 5.0 mph 11.0 mph 92 % 0.00 in
10:15 73.0 °F 70.5 °F 29.94 in SE 4.0 mph 11.0 mph 92 % 0.00 in
10:20 73.0 °F 70.5 °F 29.94 in East 5.0 mph 11.0 mph 92 % 0.00 in
10:25 73.2 °F 70.5 °F 29.94 in SE 4.0 mph 11.0 mph 91 % 0.00 in
10:30 73.2 °F 70.5 °F 29.94 in ESE 10.0 mph 12.0 mph 91 % 0.00 in
10:35 73.2 °F 70.5 °F 29.94 in ESE 3.0 mph 16.0 mph 91 % 0.00 in
10:40 73.2 °F 70.5 °F 29.94 in SE 4.0 mph 16.0 mph 91 % 0.00 in
10:45 73.2 °F 70.5 °F 29.94 in East 8.0 mph 16.0 mph 91 % 0.00 in
10:50 73.0 °F 70.3 °F 29.94 in SE 7.0 mph 13.0 mph 91 % 0.00 in
10:55 73.0 °F 70.3 °F 29.94 in SE 6.0 mph 16.0 mph 91 % 0.00 in
11:01 73.2 °F 70.5 °F 29.94 in East 8.0 mph 16.0 mph 91 % 0.00 in
11:06 73.2 °F 70.2 °F 29.94 in SE 10.0 mph 16.0 mph 90 % 0.00 in
11:11 73.0 °F 70.3 °F 29.93 in SSE 7.0 mph 16.0 mph 91 % 0.00 in
11:16 73.0 °F 70.3 °F 29.94 in ESE 9.0 mph 16.0 mph 91 % 0.00 in
11:21 73.0 °F 70.3 °F 29.94 in SE 6.0 mph 16.0 mph 91 % 0.00 in
11:26 72.9 °F 70.2 °F 29.93 in South 7.0 mph 16.0 mph 91 % 0.00 in
11:31 73.0 °F 70.3 °F 29.93 in SE 6.0 mph 16.0 mph 91 % 0.00 in
11:36 73.0 °F 70.3 °F 29.93 in East 8.0 mph 16.0 mph 91 % 0.00 in
11:41 73.2 °F 70.5 °F 29.92 in SE 8.0 mph 16.0 mph 91 % 0.00 in
11:46 73.0 °F 70.3 °F 29.92 in South 4.0 mph 16.0 mph 91 % 0.00 in
11:51 73.0 °F 70.3 °F 29.92 in East 14.0 mph 16.0 mph 91 % 0.00 in
11:56 72.9 °F 70.2 °F 29.92 in SE 12.0 mph 16.0 mph 91 % 0.00 in
12:01 72.9 °F 70.2 °F 29.92 in ESE 12.0 mph 14.0 mph 91 % 0.00 in
12:06 72.9 °F 70.3 °F 29.92 in East 8.0 mph 15.0 mph 92 % 0.00 in
12:11 73.0 °F 70.5 °F 29.92 in SE 5.0 mph 15.0 mph 92 % 0.00 in
12:16 73.6 °F 70.7 °F 29.92 in ESE 6.0 mph 15.0 mph 91 % 0.00 in
12:21 73.9 °F 70.9 °F 29.91 in SSE 15.0 mph 16.0 mph 90 % 0.00 in
12:26 74.1 °F 70.7 °F 29.91 in SSE 9.0 mph 16.0 mph 89 % 0.00 in
12:31 74.7 °F 71.2 °F 29.91 in ESE 13.0 mph 16.0 mph 89 % 0.00 in
12:36 74.8 °F 70.7 °F 29.90 in ESE 7.0 mph 16.0 mph 87 % 0.00 in
12:41 74.8 °F 70.7 °F 29.90 in ESE 5.0 mph 13.0 mph 87 % 0.00 in
12:47 75.2 °F 71.1 °F 29.90 in SE 7.0 mph 13.0 mph 87 % 0.00 in
12:52 75.0 °F 70.2 °F 29.90 in SE 19.0 mph 19.0 mph 85 % 0.00 in
12:57 75.0 °F 70.2 °F 29.90 in SSE 6.0 mph 19.0 mph 85 % 0.00 in
13:02 75.2 °F 70.0 °F 29.89 in ESE 6.0 mph 19.0 mph 84 % 0.00 in
13:07 75.6 °F 70.3 °F 29.89 in SE 8.0 mph 19.0 mph 84 % 0.00 in
13:12 75.9 °F 70.3 °F 29.89 in ESE 11.0 mph 17.0 mph 83 % 0.00 in
13:17 75.9 °F 70.3 °F 29.89 in East 11.0 mph 15.0 mph 83 % 0.00 in
13:22 76.3 °F 70.7 °F 29.89 in East 8.0 mph 15.0 mph 83 % 0.00 in
13:27 76.5 °F 70.5 °F 29.88 in ESE 4.0 mph 15.0 mph 82 % 0.00 in
13:32 76.5 °F 70.2 °F 29.88 in SE 6.0 mph 14.0 mph 81 % 0.00 in
13:37 76.3 °F 70.3 °F 29.88 in ESE 4.0 mph 14.0 mph 82 % 0.00 in
13:42 76.3 °F 70.3 °F 29.88 in SE 8.0 mph 14.0 mph 82 % 0.00 in
13:47 76.5 °F 70.5 °F 29.88 in East 5.0 mph 15.0 mph 82 % 0.00 in
13:52 76.5 °F 70.9 °F 29.87 in SE 2.0 mph 15.0 mph 83 % 0.00 in
13:57 76.8 °F 70.9 °F 29.87 in ESE 3.0 mph 15.0 mph 82 % 0.00 in
14:02 77.0 °F 70.3 °F 29.87 in SSE 4.0 mph 14.0 mph 80 % 0.00 in
14:07 77.7 °F 71.1 °F 29.87 in ESE 7.0 mph 14.0 mph 80 % 0.00 in
14:12 78.1 °F 71.1 °F 29.86 in SE 11.0 mph 14.0 mph 79 % 0.00 in
14:17 78.3 °F 70.9 °F 29.86 in SSE 8.0 mph 14.0 mph 78 % 0.00 in
14:22 78.3 °F 70.9 °F 29.86 in SSE 8.0 mph 14.0 mph 78 % 0.00 in
14:27 78.4 °F 70.7 °F 29.86 in SE 7.0 mph 14.0 mph 77 % 0.00 in
14:32 78.6 °F 70.0 °F 29.86 in SE 5.0 mph 13.0 mph 75 % 0.00 in
14:37 79.0 °F 70.3 °F 29.85 in East 7.0 mph 14.0 mph 75 % 0.00 in
14:42 79.0 °F 70.3 °F 29.85 in SE 12.0 mph 14.0 mph 75 % 0.00 in
14:47 79.2 °F 69.8 °F 29.85 in SE 7.0 mph 14.0 mph 73 % 0.00 in
14:52 79.0 °F 70.3 °F 29.84 in ESE 10.0 mph 16.0 mph 75 % 0.00 in
14:57 79.0 °F 70.3 °F 29.84 in ENE 8.0 mph 16.0 mph 75 % 0.00 in
15:02 79.2 °F 70.5 °F 29.84 in East 8.0 mph 16.0 mph 75 % 0.00 in
15:07 79.3 °F 70.3 °F 29.84 in SE 8.0 mph 15.0 mph 74 % 0.00 in
15:17 79.9 °F 70.5 °F 29.84 in East 6.0 mph 15.0 mph 73 % 0.00 in
15:22 80.2 °F 70.3 °F 29.84 in ESE 8.0 mph 12.0 mph 72 % 0.00 in
15:27 80.2 °F 70.3 °F 29.84 in SE 5.0 mph 11.0 mph 72 % 0.00 in
15:32 80.2 °F 70.3 °F 29.84 in SE 5.0 mph 12.0 mph 72 % 0.00 in
15:37 80.1 °F 70.2 °F 29.84 in East 7.0 mph 15.0 mph 72 % 0.00 in
15:42 79.5 °F 70.2 °F 29.84 in SSE 2.0 mph 15.0 mph 73 % 0.00 in
15:47 79.5 °F 69.6 °F 29.84 in ESE 8.0 mph 15.0 mph 72 % 0.00 in
15:52 79.3 °F 69.4 °F 29.85 in East 6.0 mph 15.0 mph 72 % 0.00 in
15:57 79.2 °F 69.3 °F 29.85 in SE 8.0 mph 15.0 mph 72 % 0.00 in
16:02 79.2 °F 69.3 °F 29.85 in South 7.0 mph 15.0 mph 72 % 0.00 in
16:07 78.8 °F 69.1 °F 29.85 in SE 7.0 mph 13.0 mph 72 % 0.00 in
16:12 78.4 °F 69.4 °F 29.86 in ESE 7.0 mph 12.0 mph 74 % 0.00 in
16:17 78.3 °F 69.6 °F 29.86 in SE 6.0 mph 12.0 mph 75 % 0.00 in
16:22 78.1 °F 69.4 °F 29.86 in East 5.0 mph 10.0 mph 75 % 0.00 in
16:27 77.9 °F 69.8 °F 29.86 in SE 4.0 mph 11.0 mph 76 % 0.00 in
16:37 77.5 °F 69.4 °F 29.86 in ESE 3.0 mph 11.0 mph 76 % 0.00 in
16:42 77.4 °F 69.6 °F 29.86 in ESE 10.0 mph 10.0 mph 77 % 0.00 in
16:47 77.2 °F 69.8 °F 29.85 in ESE 3.0 mph 13.0 mph 78 % 0.00 in
16:52 77.0 °F 69.6 °F 29.84 in ESE 4.0 mph 13.0 mph 78 % 0.00 in
16:57 76.6 °F 69.6 °F 29.84 in SE 6.0 mph 13.0 mph 79 % 0.00 in
17:02 76.3 °F 69.6 °F 29.84 in ESE 8.0 mph 12.0 mph 80 % 0.00 in
17:07 75.9 °F 69.6 °F 29.84 in SSE 3.0 mph 12.0 mph 81 % 0.00 in
17:12 75.6 °F 69.6 °F 29.84 in SSE 7.0 mph 13.0 mph 82 % 0.00 in
17:17 75.4 °F 69.4 °F 29.83 in ESE 6.0 mph 13.0 mph 82 % 0.00 in
17:22 75.0 °F 69.4 °F 29.83 in ESE 6.0 mph 15.0 mph 83 % 0.00 in
17:27 74.8 °F 69.6 °F 29.84 in SE 3.0 mph 16.0 mph 84 % 0.00 in
17:32 74.8 °F 69.6 °F 29.83 in ENE 7.0 mph 16.0 mph 84 % 0.00 in
17:37 74.5 °F 69.6 °F 29.84 in SE 5.0 mph 16.0 mph 85 % 0.00 in
17:42 74.1 °F 69.6 °F 29.84 in East 3.0 mph 13.0 mph 86 % 0.00 in
17:47 73.9 °F 69.4 °F 29.84 in SE 6.0 mph 13.0 mph 86 % 0.00 in
17:52 73.8 °F 69.6 °F 29.83 in SE 7.0 mph 13.0 mph 87 % 0.00 in
17:57 73.6 °F 69.4 °F 29.84 in SSE 7.0 mph 13.0 mph 87 % 0.00 in
18:02 73.6 °F 69.8 °F 29.83 in ESE 4.0 mph 13.0 mph 88 % 0.00 in
18:07 73.2 °F 69.4 °F 29.85 in SE 7.0 mph 13.0 mph 88 % 0.00 in
18:12 73.0 °F 69.3 °F 29.86 in SE 7.0 mph 15.0 mph 88 % 0.00 in
18:17 73.0 °F 69.6 °F 29.86 in East 10.0 mph 15.0 mph 89 % 0.00 in
18:22 72.9 °F 69.4 °F 29.85 in ESE 4.0 mph 15.0 mph 89 % 0.00 in
18:27 72.9 °F 69.4 °F 29.86 in SSW 7.0 mph 13.0 mph 89 % 0.00 in
18:32 72.9 °F 69.4 °F 29.87 in SE 4.0 mph 11.0 mph 89 % 0.00 in
18:37 72.9 °F 69.1 °F 29.87 in ESE 11.0 mph 11.0 mph 88 % 0.00 in
18:42 72.9 °F 69.1 °F 29.87 in ESE 6.0 mph 14.0 mph 88 % 0.00 in
18:47 72.9 °F 69.1 °F 29.88 in SSE 4.0 mph 14.0 mph 88 % 0.00 in
18:52 72.9 °F 69.4 °F 29.88 in SE 5.0 mph 14.0 mph 89 % 0.00 in
18:57 72.9 °F 69.4 °F 29.87 in East 8.0 mph 14.0 mph 89 % 0.00 in
19:02 72.7 °F 69.3 °F 29.87 in ESE 3.0 mph 14.0 mph 89 % 0.00 in
19:07 72.7 °F 69.3 °F 29.88 in SE 1.0 mph 14.0 mph 89 % 0.00 in
19:12 72.7 °F 69.3 °F 29.88 in East 5.0 mph 12.0 mph 89 % 0.00 in
19:17 72.5 °F 69.4 °F 29.88 in South 3.0 mph 12.0 mph 90 % 0.00 in
19:22 72.5 °F 69.4 °F 29.88 in ESE 5.0 mph 10.0 mph 90 % 0.00 in
19:27 72.3 °F 69.3 °F 29.88 in ESE 4.0 mph 12.0 mph 90 % 0.00 in
19:32 72.3 °F 69.6 °F 29.88 in SE 5.0 mph 12.0 mph 91 % 0.00 in
19:37 72.3 °F 69.6 °F 29.88 in East 7.0 mph 12.0 mph 91 % 0.00 in
19:42 72.3 °F 69.6 °F 29.88 in South 7.0 mph 11.0 mph 91 % 0.00 in
19:47 72.3 °F 69.6 °F 29.88 in NE 3.0 mph 13.0 mph 91 % 0.00 in
19:52 72.1 °F 69.6 °F 29.88 in East 8.0 mph 13.0 mph 92 % 0.00 in
19:57 72.1 °F 69.6 °F 29.88 in SE 2.0 mph 13.0 mph 92 % 0.00 in
20:02 72.1 °F 69.6 °F 29.88 in East 6.0 mph 9.0 mph 92 % 0.00 in
20:07 72.0 °F 69.4 °F 29.88 in SSE 6.0 mph 11.0 mph 92 % 0.00 in
20:12 72.0 °F 69.8 °F 29.87 in ESE 10.0 mph 11.0 mph 93 % 0.00 in
20:17 71.8 °F 69.6 °F 29.87 in SE 5.0 mph 13.0 mph 93 % 0.00 in
20:22 71.6 °F 69.8 °F 29.87 in ESE 9.0 mph 13.0 mph 94 % 0.00 in
20:27 71.4 °F 69.6 °F 29.87 in SE 4.0 mph 13.0 mph 94 % 0.00 in
20:32 71.2 °F 69.4 °F 29.88 in ESE 4.0 mph 13.0 mph 94 % 0.00 in
20:37 71.2 °F 69.8 °F 29.87 in ESE 7.0 mph 13.0 mph 95 % 0.00 in
20:42 71.2 °F 69.8 °F 29.87 in SE 6.0 mph 13.0 mph 95 % 0.00 in
20:44 71.1 °F 69.6 °F 29.87 in East 7.0 mph 13.0 mph 95 % 0.00 in
20:49 71.1 °F 69.6 °F 29.87 in South 8.0 mph 13.0 mph 95 % 0.00 in
20:54 71.1 °F 69.6 °F 29.88 in SE 7.0 mph 11.0 mph 95 % 0.00 in
20:59 70.9 °F 69.4 °F 29.88 in ESE 4.0 mph 15.0 mph 95 % 0.00 in
21:04 70.9 °F 69.4 °F 29.88 in SE 3.0 mph 15.0 mph 95 % 0.00 in
21:09 70.9 °F 69.4 °F 29.87 in South 2.0 mph 15.0 mph 95 % 0.00 in
21:14 70.9 °F 69.4 °F 29.87 in East 5.0 mph 11.0 mph 95 % 0.00 in
21:19 70.9 °F 69.4 °F 29.87 in SSE 2.0 mph 11.0 mph 95 % 0.00 in
21:24 70.9 °F 69.6 °F 29.87 in ESE 6.0 mph 10.0 mph 96 % 0.00 in
21:29 70.9 °F 69.6 °F 29.87 in SE 3.0 mph 10.0 mph 96 % 0.00 in
21:34 70.7 °F 69.4 °F 29.86 in SE 3.0 mph 9.0 mph 96 % 0.00 in
21:39 70.7 °F 69.4 °F 29.86 in East 2.0 mph 11.0 mph 96 % 0.00 in
21:44 70.5 °F 69.3 °F 29.86 in ESE 3.0 mph 11.0 mph 96 % 0.00 in
21:49 70.5 °F 69.3 °F 29.86 in ESE 7.0 mph 11.0 mph 96 % 0.00 in
21:54 70.5 °F 69.6 °F 29.86 in SE 2.0 mph 9.0 mph 97 % 0.00 in
21:59 70.3 °F 69.4 °F 29.87 in ESE 3.0 mph 9.0 mph 97 % 0.00 in
22:04 70.3 °F 69.4 °F 29.87 in SSW 3.0 mph 9.0 mph 97 % 0.00 in
22:09 70.3 °F 69.4 °F 29.87 in ESE 3.0 mph 9.0 mph 97 % 0.00 in
22:14 70.3 °F 69.4 °F 29.87 in ESE 6.0 mph 9.0 mph 97 % 0.00 in
22:19 70.3 °F 69.4 °F 29.88 in SE 2.0 mph 9.0 mph 97 % 0.00 in
22:25 70.3 °F 69.4 °F 29.88 in ESE 5.0 mph 9.0 mph 97 % 0.00 in
22:30 70.3 °F 69.4 °F 29.88 in SSE 5.0 mph 9.0 mph 97 % 0.00 in
22:31 70.3 °F 69.4 °F 29.88 in ESE 3.0 mph 10.0 mph 97 % 0.00 in
22:36 70.3 °F 69.8 °F 29.88 in East 2.0 mph 12.0 mph 98 % 0.00 in
22:41 70.3 °F 69.8 °F 29.89 in ESE 8.0 mph 12.0 mph 98 % 0.00 in
22:46 70.3 °F 69.8 °F 29.88 in SE 2.0 mph 12.0 mph 98 % 0.00 in
22:51 70.3 °F 69.8 °F 29.89 in ESE 6.0 mph 12.0 mph 98 % 0.00 in
22:56 70.3 °F 69.8 °F 29.88 in ESE 6.0 mph 12.0 mph 98 % 0.00 in
23:01 70.3 °F 69.8 °F 29.88 in SSE 8.0 mph 11.0 mph 98 % 0.00 in
23:06 70.3 °F 69.8 °F 29.89 in SE 3.0 mph 11.0 mph 98 % 0.00 in
23:11 70.3 °F 69.8 °F 29.89 in SE 5.0 mph 11.0 mph 98 % 0.00 in
23:16 70.3 °F 69.8 °F 29.89 in ESE 5.0 mph 11.0 mph 98 % 0.00 in
23:21 70.3 °F 69.8 °F 29.89 in ESE 4.0 mph 11.0 mph 98 % 0.00 in
23:26 70.3 °F 69.8 °F 29.89 in ESE 2.0 mph 7.0 mph 98 % 0.00 in
23:31 70.3 °F 69.8 °F 29.89 in SE 4.0 mph 7.0 mph 98 % 0.00 in
23:36 70.3 °F 69.8 °F 29.89 in SSE 2.0 mph 8.0 mph 98 % 0.00 in
23:41 70.3 °F 69.8 °F 29.89 in ESE 4.0 mph 8.0 mph 98 % 0.00 in
23:46 70.3 °F 69.8 °F 29.89 in SE 5.0 mph 8.0 mph 98 % 0.00 in
23:52 70.3 °F 69.8 °F 29.89 in SSE 4.0 mph 9.0 mph 98 % 0.00 in
23:57 70.3 °F 69.8 °F 29.89 in Calm   9.0 mph 98 % 0.00 in
Spring, Texas: Villages of Bridgestone
Compliments of Weather Underground - 2.75 mb

Script developed by  Jim McMurry - jmcmurry@mwt.net Adapted for the template by  Wim van der Kuil - Leuven-Template.eu

You find our weather info also at:

UK Metoffice

WeatherCloud

Weather Underground

Mid-South Weather Network

AWEKAS

Citizen Weather Observer Program (CWOP)

HAMweather, WeatherForYou, PWS Weather

Equipment we use:

Weather-station
Davis Vantage Vue

Weather-program
Meteohub

Weather-server
Debian 7.9 x86 (Guest)

Provider
DreamHost

Davis Vantage Vue

Meteohub

Debian 7.9 x86 (Guest)

DreamHost